Time;durP1;ratioP1;P1;durP2;ratioP2;P2;SDS_P1;SDS_P2;PMS_P1;PMS_P2;Temp;Humidity;BMP_temperature;BMP_pressure;BME280_temperature;BME280_humidity;BME280_pressure;Samples;Min_cycle;Max_cycle;Signal;HPM_P1;HPM_P2
2022/07/29 08:34:02;;;;;;;;;;;;;;;;;;;;;
2022/07/29 08:48:46;;;;;;;;;;;;;;;;;;;;;
2022/07/29 08:55:33;;;;;;;;;;;;;;;;;;;;;
2022/07/29 12:42:39;;;;;;;4.75;2.00;;;22.70;81.20;;;;;;6296400;22;20969;-88
2022/07/29 12:45:08;;;;;;;2.28;1.67;;;22.70;81.40;;;;;;6318069;22;20007;-87
2022/07/29 12:47:52;;;;;;;2.10;1.60;;;22.70;81.30;;;;;;6317197;22;20129;-94
2022/07/29 12:50:18;;;;;;;5.13;1.88;;;22.70;81.30;;;;;;6316721;22;19998;-87
2022/07/29 12:52:45;;;;;;;5.40;1.80;;;22.70;80.90;;;;;;6291937;22;20085;-87
2022/07/29 12:55:14;;;;;;;2.92;1.85;;;22.80;80.10;;;;;;6317173;22;20470;-88
2022/07/29 12:57:51;;;;;;;;;;;22.90;79.80;;;;;;6348864;22;20002;-88
2022/07/29 13:00:22;;;;;;;7.75;1.60;;;22.90;80.00;;;;;;6320273;22;19899;-87
2022/07/29 13:02:58;;;;;;;2.05;1.10;;;22.90;78.30;;;;;;6347341;22;20518;-85
2022/07/29 13:05:38;;;;;;;1.73;1.25;;;22.90;78.10;;;;;;6357966;22;20006;-85
2022/07/29 13:08:16;;;;;;;1.63;1.30;;;23.00;77.80;;;;;;6335350;22;20013;-85
2022/07/29 13:10:49;;;;;;;1.27;1.00;;;23.00;77.90;;;;;;6355846;22;20063;-85
2022/07/29 13:13:18;;;;;;;2.42;1.65;;;23.00;77.60;;;;;;6303979;22;20010;-84
2022/07/29 13:15:48;;;;;;;1.83;1.20;;;23.00;77.10;;;;;;6329414;22;20010;-84
2022/07/29 13:18:30;;;;;;;2.83;1.50;;;23.10;77.30;;;;;;6362939;22;20075;-86
2022/07/29 13:20:57;;;;;;;2.05;1.45;;;23.20;76.50;;;;;;6324979;22;19995;-85
2022/07/29 13:23:28;;;;;;;2.25;1.60;;;23.20;76.30;;;;;;6320439;22;20071;-88
2022/07/29 13:25:54;;;;;;;5.60;1.38;;;23.20;76.60;;;;;;6343727;22;20074;-86
2022/07/29 13:28:21;;;;;;;2.85;1.30;;;23.30;77.10;;;;;;6289720;22;20059;-87
2022/07/29 13:30:46;;;;;;;2.17;1.50;;;23.20;77.60;;;;;;6315080;22;20440;-85
2022/07/29 13:33:14;;;;;;;3.80;1.67;;;23.20;77.90;;;;;;6315901;22;19999;-87
2022/07/29 13:35:40;;;;;;;4.18;1.60;;;23.30;78.50;;;;;;6316224;22;20078;-86
2022/07/29 13:38:07;;;;;;;11.00;1.58;;;23.40;78.50;;;;;;6312869;22;19999;-82
2022/07/29 13:40:35;;;;;;;4.00;1.42;;;23.50;79.10;;;;;;6312045;22;20007;-81
2022/07/29 13:43:00;;;;;;;6.60;1.95;;;23.50;78.60;;;;;;6259412;22;20395;-81
2022/07/29 13:45:26;;;;;;;6.75;1.80;;;23.60;78.70;;;;;;6312344;22;20038;-80
2022/07/29 13:48:18;;;;;;;3.90;1.67;;;23.70;78.50;;;;;;6312913;22;20015;-89
2022/07/29 13:50:45;;;;;;;5.00;1.65;;;23.70;78.50;;;;;;6309278;22;20006;-82
2022/07/29 13:53:13;;;;;;;9.85;2.35;;;23.80;78.10;;;;;;6307770;22;20345;-81
2022/07/29 13:55:38;;;;;;;6.47;1.80;;;23.90;77.70;;;;;;6284447;22;20011;-81
2022/07/29 13:58:04;;;;;;;4.35;1.80;;;24.00;77.40;;;;;;6311097;22;20507;-81
2022/07/29 14:00:30;;;;;;;2.03;1.50;;;24.20;77.10;;;;;;6310805;22;20325;-82
2022/07/29 14:02:57;;;;;;;1.52;1.40;;;24.30;77.20;;;;;;6311531;22;20466;-81
2022/07/29 14:05:23;;;;;;;2.50;1.50;;;24.30;76.90;;;;;;6310854;22;20158;-81
2022/07/29 14:07:48;;;;;;;2.00;1.50;;;24.50;75.80;;;;;;6285713;22;20011;-80
2022/07/29 14:10:15;;;;;;;2.63;1.40;;;24.50;75.00;;;;;;6286209;22;20375;-82
2022/07/29 14:12:41;;;;;;;3.65;1.25;;;24.50;75.20;;;;;;6309317;22;19998;-82
2022/07/29 14:15:08;;;;;;;2.80;1.45;;;24.60;75.50;;;;;;6335039;22;20014;-83
2022/07/29 14:17:35;;;;;;;9.30;2.47;;;24.60;75.50;;;;;;6309740;22;20007;-81
2022/07/29 14:20:00;;;;;;;10.10;1.85;;;24.70;75.10;;;;;;6259575;22;20310;-83
2022/07/29 14:22:26;;;;;;;4.15;1.85;;;24.70;75.30;;;;;;6286391;22;20010;-82
2022/07/29 14:24:52;;;;;;;3.60;1.60;;;24.80;75.80;;;;;;6282268;22;20003;-82
2022/07/29 14:27:18;;;;;;;3.05;1.60;;;24.80;76.00;;;;;;6285883;22;20010;-83
2022/07/29 14:29:43;;;;;;;1.83;1.50;;;24.90;75.70;;;;;;6337815;22;20067;-82
2022/07/29 14:32:10;;;;;;;2.67;1.73;;;24.90;75.10;;;;;;6285131;22;20094;-83
2022/07/29 14:34:39;;;;;;;1.98;1.55;;;25.00;75.10;;;;;;6310169;22;19995;-83
2022/07/29 14:37:05;;;;;;;1.75;1.50;;;25.00;74.50;;;;;;6337278;22;20365;-82
2022/07/29 14:39:31;;;;;;;2.10;1.70;;;25.00;74.30;;;;;;6338820;22;20003;-83
2022/07/29 14:41:57;;;;;;;4.63;1.45;;;25.10;74.60;;;;;;6310331;22;20025;-83
2022/07/29 14:44:24;;;;;;;3.22;1.75;;;25.10;74.70;;;;;;6285021;22;20025;-81
2022/07/29 14:46:49;;;;;;;3.33;1.40;;;25.20;74.60;;;;;;6257668;22;20019;-82
2022/07/29 14:49:15;;;;;;;2.75;1.52;;;25.30;74.60;;;;;;6284283;22;20034;-81
2022/07/29 14:51:41;;;;;;;3.47;1.33;;;25.30;74.30;;;;;;6310728;22;19999;-84
2022/07/29 14:54:07;;;;;;;1.63;1.20;;;25.30;74.60;;;;;;6309368;22;20009;-86
2022/07/29 14:56:43;;;;;;;2.53;1.40;;;25.30;74.30;;;;;;6310098;22;20009;-87
2022/07/29 14:59:11;;;;;;;3.70;1.58;;;25.40;74.20;;;;;;6285276;22;20034;-88
2022/07/29 15:01:37;;;;;;;3.78;1.60;;;25.50;74.30;;;;;;6309739;22;20006;-82
2022/07/29 15:04:06;;;;;;;1.73;1.30;;;25.50;74.20;;;;;;6311133;22;20328;-83
2022/07/29 15:06:39;;;;;;;1.70;1.35;;;25.60;74.00;;;;;;6284793;22;20021;-85
2022/07/29 15:09:05;;;;;;;2.08;1.52;;;25.70;73.20;;;;;;6309309;22;20006;-83
2022/07/29 15:11:30;;;;;;;3.72;1.50;;;25.80;73.30;;;;;;6285392;22;20081;-85
2022/07/29 15:13:56;;;;;;;2.10;1.30;;;25.80;71.60;;;;;;6309976;22;20006;-87
2022/07/29 15:16:22;;;;;;;1.73;1.30;;;25.90;69.20;;;;;;6310884;22;20094;-83
2022/07/29 15:18:47;;;;;;;2.05;1.70;;;26.00;68.40;;;;;;6259276;22;20382;-85
2022/07/29 15:21:13;;;;;;;4.05;1.65;;;26.10;67.50;;;;;;6337543;22;20351;-85
2022/07/29 15:23:42;;;;;;;1.50;1.30;;;26.10;68.10;;;;;;6309530;22;20136;-84
2022/07/29 15:26:08;;;;;;;2.10;1.40;;;26.20;68.20;;;;;;6284617;22;20003;-83
2022/07/29 15:28:33;;;;;;;3.08;1.27;;;26.20;67.80;;;;;;6284941;22;20477;-86
2022/07/29 15:30:59;;;;;;;2.30;1.50;;;26.20;67.70;;;;;;6311126;22;20298;-84
2022/07/29 15:33:25;;;;;;;3.70;1.30;;;26.30;67.60;;;;;;6310681;22;20002;-85
2022/07/29 15:35:51;;;;;;;3.05;1.40;;;26.30;67.80;;;;;;6311595;22;20003;-84
2022/07/29 15:38:20;;;;;;;2.15;1.10;;;26.30;66.90;;;;;;6310621;22;20061;-85
2022/07/29 15:40:46;;;;;;;2.13;1.30;;;26.40;67.30;;;;;;6311550;22;20034;-85
2022/07/29 15:43:14;;;;;;;2.08;1.20;;;26.40;68.00;;;;;;6310041;22;20735;-84
2022/07/29 15:47:02;;;;;;;3.53;1.42;;;26.40;68.40;;;;;;6287382;22;20007;-85
2022/07/29 15:48:27;;;;;;;1.85;1.40;;;26.40;68.40;;;;;;6317134;22;20045;-85
2022/07/29 15:50:53;;;;;;;2.08;1.50;;;26.50;68.40;;;;;;6288392;22;20003;-85
2022/07/29 15:53:19;;;;;;;2.85;1.50;;;26.50;68.40;;;;;;6287538;22;20007;-85
2022/07/29 15:56:40;;;;;;;;;;;;;;;;;;;;;
2022/07/29 15:59:08;;;;;;;3.53;1.40;;;26.40;68.00;;;;;;6189783;23;20103;-88
2022/07/29 16:01:55;;;;;;;3.22;1.60;;;26.40;68.10;;;;;;6186667;23;20005;-87
2022/07/29 16:04:21;;;;;;;2.28;1.42;;;26.40;68.10;;;;;;6289004;22;19999;-89
2022/07/29 16:07:03;;;;;;;3.55;1.60;;;26.30;67.10;;;;;;6337791;22;20007;-89
2022/07/29 16:09:34;;;;;;;2.42;1.40;;;26.20;67.30;;;;;;6316246;22;20003;-88
2022/07/29 16:12:00;;;;;;;2.53;1.30;;;26.20;67.40;;;;;;6338382;22;20005;-88
2022/07/29 16:14:28;;;;;;;1.77;1.25;;;26.10;67.40;;;;;;6337904;22;19995;-88
2022/07/29 16:17:07;;;;;;;1.85;1.40;;;26.10;67.60;;;;;;6337283;22;20003;-88
2022/07/29 16:19:33;;;;;;;2.53;1.25;;;26.00;67.50;;;;;;6298864;22;20499;-88
2022/07/29 16:22:02;;;;;;;2.30;1.50;;;26.00;67.50;;;;;;6321498;22;20049;-88
2022/07/29 16:24:31;;;;;;;4.60;1.75;;;25.90;67.30;;;;;;6313728;22;20010;-88
2022/07/29 16:26:57;;;;;;;2.63;1.73;;;25.90;67.10;;;;;;6314001;22;20502;-87
2022/07/29 16:29:28;;;;;;;3.97;1.48;;;25.80;66.70;;;;;;6340851;22;19999;-88
2022/07/29 16:31:57;;;;;;;4.43;1.70;;;25.80;66.90;;;;;;6289126;22;20006;-87
2022/07/29 16:34:34;;;;;;;2.72;1.55;;;25.80;67.00;;;;;;6312763;22;20390;-92
2022/07/29 16:37:00;;;;;;;2.65;1.73;;;25.80;67.00;;;;;;6313878;22;20003;-86
2022/07/29 16:39:28;;;;;;;3.15;1.55;;;25.80;66.90;;;;;;6312970;22;20007;-87
2022/07/29 16:42:02;;;;;;;3.05;1.70;;;25.80;67.10;;;;;;6288330;22;20002;-88
2022/07/29 16:44:28;;;;;;;3.40;1.90;;;25.80;66.90;;;;;;6314330;22;20011;-87
2022/07/29 16:49:43;;;;;;;4.03;2.03;;;25.70;67.40;;;;;;6323976;22;20166;-87
2022/07/29 16:52:08;;;;;;;2.60;1.98;;;25.70;67.90;;;;;;6313347;22;20003;-86
2022/07/29 16:54:34;;;;;;;2.03;1.80;;;25.60;68.20;;;;;;6313240;22;20002;-87
2022/07/29 16:57:02;;;;;;;4.13;1.80;;;25.60;69.00;;;;;;6312146;22;20088;-88
2022/07/29 16:59:28;;;;;;;2.58;1.80;;;25.60;69.50;;;;;;6286039;22;20060;-87
2022/07/29 17:01:54;;;;;;;5.18;3.40;;;25.50;69.60;;;;;;6313004;22;20323;-88
2022/07/29 17:04:20;;;;;;;2.80;2.47;;;25.50;70.00;;;;;;6312454;22;20026;-86
2022/07/29 17:06:48;;;;;;;3.03;2.22;;;25.40;70.40;;;;;;6313304;22;20018;-87
2022/07/29 17:09:15;;;;;;;5.82;2.38;;;25.30;71.20;;;;;;6340197;22;19999;-87
2022/07/29 17:11:41;;;;;;;4.60;2.38;;;25.20;72.10;;;;;;6312485;22;20363;-88
2022/07/29 17:14:09;;;;;;;2.92;1.90;;;25.00;72.80;;;;;;6340472;22;19999;-85
2022/07/29 17:16:35;;;;;;;2.55;1.60;;;24.90;73.50;;;;;;6339370;22;20420;-84
2022/07/29 17:19:19;;;;;;;2.83;2.03;;;24.80;73.90;;;;;;6313704;22;20044;-91
2022/07/29 17:21:44;;;;;;;2.67;1.90;;;24.80;74.50;;;;;;6290147;22;20010;-86
2022/07/29 17:24:10;;;;;;;3.95;2.22;;;24.80;75.50;;;;;;6312515;22;20074;-86
2022/07/29 17:26:36;;;;;;;4.18;2.17;;;24.70;76.90;;;;;;6286214;22;20378;-84
2022/07/29 17:29:02;;;;;;;3.00;2.15;;;24.70;77.60;;;;;;6312762;22;20003;-88
2022/07/29 17:31:30;;;;;;;3.28;1.90;;;24.70;77.60;;;;;;6339710;22;20403;-89
2022/07/29 17:33:58;;;;;;;3.65;2.15;;;24.70;77.80;;;;;;6312348;22;20073;-88
2022/07/29 17:36:31;;;;;;;3.65;2.00;;;24.70;78.50;;;;;;6313214;22;20010;-88
2022/07/29 17:39:00;;;;;;;3.67;2.05;;;24.70;79.00;;;;;;6340868;22;19999;-87
2022/07/29 17:41:27;;;;;;;4.10;2.10;;;24.70;79.10;;;;;;6312473;22;19994;-87
2022/07/29 17:44:03;;;;;;;2.83;2.13;;;24.70;79.40;;;;;;6310801;22;20007;-89
2022/07/29 17:46:29;;;;;;;3.60;2.25;;;24.60;79.20;;;;;;6261455;22;20007;-88
2022/07/29 17:48:56;;;;;;;4.38;2.38;;;24.60;78.90;;;;;;6312604;22;19995;-88
2022/07/29 17:51:25;;;;;;;4.35;2.45;;;24.60;78.80;;;;;;6312301;22;20058;-89
2022/07/29 17:53:56;;;;;;;3.92;2.30;;;24.50;78.50;;;;;;6312482;22;20056;-88
2022/07/29 17:56:30;;;;;;;4.28;2.17;;;24.50;78.60;;;;;;6340027;22;19999;-88
2022/07/29 17:59:26;;;;;;;5.45;2.10;;;24.50;78.30;;;;;;6313127;22;19995;-89
